sensor_id;sensor_type;location;lat;lon;timestamp;P1;durP1;ratioP1;P2;durP2;ratioP2
8044;SDS011;4065;48.754;9.982;2024-02-26T00:02:01;8.40;;;7.50;;
8044;SDS011;4065;48.754;9.982;2024-02-26T00:06:15;7.47;;;6.78;;
8044;SDS011;4065;48.754;9.982;2024-02-26T00:10:30;11.00;;;8.18;;
8044;SDS011;4065;48.754;9.982;2024-02-26T00:14:45;10.32;;;7.38;;
8044;SDS011;4065;48.754;9.982;2024-02-26T00:19:01;8.07;;;7.05;;
8044;SDS011;4065;48.754;9.982;2024-02-26T00:23:15;8.85;;;7.10;;
8044;SDS011;4065;48.754;9.982;2024-02-26T00:27:30;7.70;;;6.75;;
8044;SDS011;4065;48.754;9.982;2024-02-26T00:31:45;7.78;;;7.00;;
8044;SDS011;4065;48.754;9.982;2024-02-26T00:36:01;9.02;;;8.05;;
8044;SDS011;4065;48.754;9.982;2024-02-26T00:40:15;7.82;;;6.57;;
8044;SDS011;4065;48.754;9.982;2024-02-26T00:44:31;11.77;;;7.40;;
8044;SDS011;4065;48.754;9.982;2024-02-26T00:48:46;7.40;;;6.68;;
8044;SDS011;4065;48.754;9.982;2024-02-26T00:53:01;6.90;;;6.20;;
8044;SDS011;4065;48.754;9.982;2024-02-26T00:57:16;7.35;;;6.70;;
8044;SDS011;4065;48.754;9.982;2024-02-26T01:01:31;7.22;;;6.53;;
8044;SDS011;4065;48.754;9.982;2024-02-26T01:05:45;10.05;;;6.68;;
8044;SDS011;4065;48.754;9.982;2024-02-26T01:10:01;7.90;;;6.40;;
8044;SDS011;4065;48.754;9.982;2024-02-26T01:14:16;6.63;;;6.03;;
8044;SDS011;4065;48.754;9.982;2024-02-26T01:18:31;6.78;;;6.10;;
8044;SDS011;4065;48.754;9.982;2024-02-26T01:22:45;7.10;;;6.40;;
8044;SDS011;4065;48.754;9.982;2024-02-26T01:27:01;7.22;;;6.38;;
8044;SDS011;4065;48.754;9.982;2024-02-26T01:31:16;7.45;;;6.63;;
8044;SDS011;4065;48.754;9.982;2024-02-26T01:35:30;8.00;;;7.20;;
8044;SDS011;4065;48.754;9.982;2024-02-26T01:39:44;7.60;;;6.80;;
8044;SDS011;4065;48.754;9.982;2024-02-26T01:44:00;7.28;;;6.57;;
8044;SDS011;4065;48.754;9.982;2024-02-26T01:48:15;7.70;;;6.88;;
8044;SDS011;4065;48.754;9.982;2024-02-26T01:52:29;7.93;;;7.13;;
8044;SDS011;4065;48.754;9.982;2024-02-26T01:56:43;8.73;;;7.00;;
8044;SDS011;4065;48.754;9.982;2024-02-26T02:00:59;8.55;;;7.72;;
8044;SDS011;4065;48.754;9.982;2024-02-26T02:05:16;9.07;;;8.18;;
8044;SDS011;4065;48.754;9.982;2024-02-26T02:09:30;9.88;;;7.82;;
8044;SDS011;4065;48.754;9.982;2024-02-26T02:13:45;8.27;;;7.30;;
8044;SDS011;4065;48.754;9.982;2024-02-26T02:18:01;10.25;;;7.72;;
8044;SDS011;4065;48.754;9.982;2024-02-26T02:22:17;7.45;;;6.65;;
8044;SDS011;4065;48.754;9.982;2024-02-26T02:26:32;7.80;;;7.00;;
8044;SDS011;4065;48.754;9.982;2024-02-26T02:30:46;11.27;;;7.60;;
8044;SDS011;4065;48.754;9.982;2024-02-26T02:35:01;8.18;;;6.13;;
8044;SDS011;4065;48.754;9.982;2024-02-26T02:39:17;8.43;;;7.25;;
8044;SDS011;4065;48.754;9.982;2024-02-26T02:43:32;8.50;;;7.18;;
8044;SDS011;4065;48.754;9.982;2024-02-26T02:47:46;7.65;;;6.82;;
8044;SDS011;4065;48.754;9.982;2024-02-26T02:52:01;9.55;;;7.80;;
8044;SDS011;4065;48.754;9.982;2024-02-26T02:56:17;8.90;;;7.88;;
8044;SDS011;4065;48.754;9.982;2024-02-26T03:00:32;9.20;;;7.13;;
8044;SDS011;4065;48.754;9.982;2024-02-26T03:04:46;8.00;;;7.20;;
8044;SDS011;4065;48.754;9.982;2024-02-26T03:09:01;7.80;;;7.00;;
8044;SDS011;4065;48.754;9.982;2024-02-26T03:13:16;8.05;;;7.28;;
8044;SDS011;4065;48.754;9.982;2024-02-26T03:17:31;6.78;;;6.07;;
8044;SDS011;4065;48.754;9.982;2024-02-26T03:21:46;8.82;;;7.20;;
8044;SDS011;4065;48.754;9.982;2024-02-26T03:26:00;9.38;;;7.78;;
8044;SDS011;4065;48.754;9.982;2024-02-26T03:30:16;8.05;;;7.22;;
8044;SDS011;4065;48.754;9.982;2024-02-26T03:34:32;9.15;;;7.95;;
8044;SDS011;4065;48.754;9.982;2024-02-26T03:38:47;8.48;;;7.57;;
8044;SDS011;4065;48.754;9.982;2024-02-26T03:43:02;9.27;;;7.88;;
8044;SDS011;4065;48.754;9.982;2024-02-26T03:47:18;8.52;;;7.60;;
8044;SDS011;4065;48.754;9.982;2024-02-26T03:51:32;7.45;;;6.65;;
8044;SDS011;4065;48.754;9.982;2024-02-26T03:55:47;7.85;;;7.15;;
8044;SDS011;4065;48.754;9.982;2024-02-26T04:00:01;8.75;;;7.30;;
8044;SDS011;4065;48.754;9.982;2024-02-26T04:04:17;8.65;;;7.70;;
8044;SDS011;4065;48.754;9.982;2024-02-26T04:08:32;8.85;;;6.25;;
8044;SDS011;4065;48.754;9.982;2024-02-26T04:12:47;7.30;;;6.60;;
8044;SDS011;4065;48.754;9.982;2024-02-26T04:17:01;7.70;;;6.95;;
8044;SDS011;4065;48.754;9.982;2024-02-26T04:21:17;9.88;;;7.47;;
8044;SDS011;4065;48.754;9.982;2024-02-26T04:25:32;9.50;;;8.50;;
8044;SDS011;4065;48.754;9.982;2024-02-26T04:29:46;9.50;;;8.50;;
8044;SDS011;4065;48.754;9.982;2024-02-26T04:34:00;12.48;;;7.32;;
8044;SDS011;4065;48.754;9.982;2024-02-26T04:38:16;9.80;;;7.60;;
8044;SDS011;4065;48.754;9.982;2024-02-26T04:42:31;7.90;;;7.10;;
8044;SDS011;4065;48.754;9.982;2024-02-26T04:46:46;8.43;;;7.35;;
8044;SDS011;4065;48.754;9.982;2024-02-26T04:51:00;7.47;;;6.60;;
8044;SDS011;4065;48.754;9.982;2024-02-26T04:55:16;8.52;;;7.63;;
8044;SDS011;4065;48.754;9.982;2024-02-26T04:59:31;9.23;;;7.38;;
8044;SDS011;4065;48.754;9.982;2024-02-26T05:03:45;7.68;;;6.95;;
8044;SDS011;4065;48.754;9.982;2024-02-26T05:08:00;9.35;;;7.85;;
8044;SDS011;4065;48.754;9.982;2024-02-26T05:12:18;10.48;;;8.15;;
8044;SDS011;4065;48.754;9.982;2024-02-26T05:16:32;10.00;;;8.63;;
8044;SDS011;4065;48.754;9.982;2024-02-26T05:20:47;11.25;;;9.68;;
8044;SDS011;4065;48.754;9.982;2024-02-26T05:25:03;12.95;;;9.43;;
8044;SDS011;4065;48.754;9.982;2024-02-26T05:29:19;12.55;;;10.25;;
8044;SDS011;4065;48.754;9.982;2024-02-26T05:33:33;12.00;;;9.43;;
8044;SDS011;4065;48.754;9.982;2024-02-26T05:37:50;12.20;;;10.13;;
8044;SDS011;4065;48.754;9.982;2024-02-26T05:42:06;12.48;;;10.02;;
8044;SDS011;4065;48.754;9.982;2024-02-26T05:46:22;10.45;;;8.93;;
8044;SDS011;4065;48.754;9.982;2024-02-26T05:50:37;11.07;;;8.63;;
8044;SDS011;4065;48.754;9.982;2024-02-26T05:54:52;9.43;;;8.13;;
8044;SDS011;4065;48.754;9.982;2024-02-26T05:59:06;9.48;;;8.45;;
8044;SDS011;4065;48.754;9.982;2024-02-26T06:03:25;9.18;;;7.43;;
8044;SDS011;4065;48.754;9.982;2024-02-26T06:07:40;9.18;;;7.30;;
8044;SDS011;4065;48.754;9.982;2024-02-26T06:11:55;9.20;;;8.30;;
8044;SDS011;4065;48.754;9.982;2024-02-26T06:16:09;12.02;;;10.75;;
8044;SDS011;4065;48.754;9.982;2024-02-26T06:19:43;10.20;;;9.13;;
8044;SDS011;4065;48.754;9.982;2024-02-26T06:23:06;9.68;;;8.77;;
8044;SDS011;4065;48.754;9.982;2024-02-26T06:26:28;9.48;;;8.25;;
8044;SDS011;4065;48.754;9.982;2024-02-26T06:29:53;9.68;;;8.70;;
8044;SDS011;4065;48.754;9.982;2024-02-26T06:33:17;10.95;;;8.40;;
8044;SDS011;4065;48.754;9.982;2024-02-26T06:36:40;10.90;;;9.32;;
8044;SDS011;4065;48.754;9.982;2024-02-26T06:40:03;10.07;;;8.15;;
8044;SDS011;4065;48.754;9.982;2024-02-26T06:43:27;12.15;;;9.05;;
8044;SDS011;4065;48.754;9.982;2024-02-26T06:46:49;9.70;;;8.70;;
8044;SDS011;4065;48.754;9.982;2024-02-26T06:50:12;10.07;;;8.18;;
8044;SDS011;4065;48.754;9.982;2024-02-26T06:53:36;8.32;;;7.53;;
8044;SDS011;4065;48.754;9.982;2024-02-26T06:56:58;8.25;;;6.95;;
8044;SDS011;4065;48.754;9.982;2024-02-26T07:00:21;7.30;;;6.60;;
8044;SDS011;4065;48.754;9.982;2024-02-26T07:03:43;8.43;;;6.90;;
8044;SDS011;4065;48.754;9.982;2024-02-26T07:07:05;8.05;;;7.25;;
8044;SDS011;4065;48.754;9.982;2024-02-26T07:10:29;8.10;;;6.97;;
8044;SDS011;4065;48.754;9.982;2024-02-26T07:13:51;7.72;;;6.93;;
8044;SDS011;4065;48.754;9.982;2024-02-26T07:17:14;8.05;;;7.25;;
8044;SDS011;4065;48.754;9.982;2024-02-26T07:20:37;8.43;;;7.57;;
8044;SDS011;4065;48.754;9.982;2024-02-26T07:24:00;8.60;;;7.72;;
8044;SDS011;4065;48.754;9.982;2024-02-26T07:27:23;9.60;;;8.60;;
8044;SDS011;4065;48.754;9.982;2024-02-26T07:30:45;10.98;;;8.25;;
8044;SDS011;4065;48.754;9.982;2024-02-26T07:34:08;10.25;;;8.95;;
8044;SDS011;4065;48.754;9.982;2024-02-26T07:38:05;9.77;;;8.65;;
8044;SDS011;4065;48.754;9.982;2024-02-26T07:42:19;9.70;;;8.70;;
8044;SDS011;4065;48.754;9.982;2024-02-26T07:46:18;9.45;;;8.02;;
8044;SDS011;4065;48.754;9.982;2024-02-26T07:50:34;9.55;;;8.38;;
8044;SDS011;4065;48.754;9.982;2024-02-26T07:54:49;15.23;;;9.48;;
8044;SDS011;4065;48.754;9.982;2024-02-26T07:58:27;11.73;;;9.40;;
8044;SDS011;4065;48.754;9.982;2024-02-26T08:02:42;13.98;;;9.20;;
8044;SDS011;4065;48.754;9.982;2024-02-26T08:06:57;10.85;;;8.38;;
8044;SDS011;4065;48.754;9.982;2024-02-26T08:11:15;10.85;;;8.30;;
8044;SDS011;4065;48.754;9.982;2024-02-26T08:15:31;9.45;;;8.30;;
8044;SDS011;4065;48.754;9.982;2024-02-26T08:19:45;9.48;;;7.55;;
8044;SDS011;4065;48.754;9.982;2024-02-26T08:24:04;10.10;;;8.60;;
8044;SDS011;4065;48.754;9.982;2024-02-26T08:28:18;10.75;;;8.00;;
8044;SDS011;4065;48.754;9.982;2024-02-26T08:32:34;7.35;;;6.53;;
8044;SDS011;4065;48.754;9.982;2024-02-26T08:36:49;7.30;;;6.57;;
8044;SDS011;4065;48.754;9.982;2024-02-26T08:41:08;7.20;;;6.45;;
8044;SDS011;4065;48.754;9.982;2024-02-26T08:45:22;9.65;;;7.55;;
8044;SDS011;4065;48.754;9.982;2024-02-26T08:49:38;11.27;;;7.70;;
8044;SDS011;4065;48.754;9.982;2024-02-26T08:53:56;9.25;;;7.10;;
8044;SDS011;4065;48.754;9.982;2024-02-26T08:58:11;8.77;;;7.15;;
8044;SDS011;4065;48.754;9.982;2024-02-26T09:02:26;7.57;;;6.60;;
8044;SDS011;4065;48.754;9.982;2024-02-26T09:06:42;7.05;;;6.15;;
8044;SDS011;4065;48.754;9.982;2024-02-26T09:10:57;6.90;;;6.20;;
8044;SDS011;4065;48.754;9.982;2024-02-26T09:15:12;7.43;;;5.93;;
8044;SDS011;4065;48.754;9.982;2024-02-26T09:19:27;7.63;;;6.20;;
8044;SDS011;4065;48.754;9.982;2024-02-26T09:23:46;6.70;;;5.53;;
8044;SDS011;4065;48.754;9.982;2024-02-26T09:28:00;10.45;;;7.55;;
8044;SDS011;4065;48.754;9.982;2024-02-26T09:32:15;5.47;;;4.95;;
8044;SDS011;4065;48.754;9.982;2024-02-26T09:36:30;7.75;;;6.95;;
8044;SDS011;4065;48.754;9.982;2024-02-26T09:40:47;5.95;;;5.43;;
8044;SDS011;4065;48.754;9.982;2024-02-26T09:45:02;4.72;;;4.32;;
8044;SDS011;4065;48.754;9.982;2024-02-26T09:49:20;4.30;;;3.90;;
8044;SDS011;4065;48.754;9.982;2024-02-26T09:53:38;6.03;;;4.55;;
8044;SDS011;4065;48.754;9.982;2024-02-26T09:57:55;7.85;;;4.40;;
8044;SDS011;4065;48.754;9.982;2024-02-26T10:02:14;4.70;;;4.30;;
8044;SDS011;4065;48.754;9.982;2024-02-26T10:06:30;19.48;;;12.30;;
8044;SDS011;4065;48.754;9.982;2024-02-26T10:10:45;9.45;;;7.60;;
8044;SDS011;4065;48.754;9.982;2024-02-26T10:15:01;6.95;;;6.30;;
8044;SDS011;4065;48.754;9.982;2024-02-26T10:19:24;5.28;;;4.10;;
8044;SDS011;4065;48.754;9.982;2024-02-26T10:23:41;4.20;;;3.80;;
8044;SDS011;4065;48.754;9.982;2024-02-26T10:27:57;4.22;;;3.92;;
8044;SDS011;4065;48.754;9.982;2024-02-26T10:32:15;4.45;;;4.05;;
8044;SDS011;4065;48.754;9.982;2024-02-26T10:36:33;6.88;;;4.75;;
8044;SDS011;4065;48.754;9.982;2024-02-26T10:40:48;5.57;;;3.78;;
8044;SDS011;4065;48.754;9.982;2024-02-26T10:45:04;4.03;;;3.72;;
8044;SDS011;4065;48.754;9.982;2024-02-26T10:49:20;5.78;;;2.90;;
8044;SDS011;4065;48.754;9.982;2024-02-26T10:53:20;7.05;;;3.22;;
8044;SDS011;4065;48.754;9.982;2024-02-26T10:57:37;4.40;;;3.92;;
8044;SDS011;4065;48.754;9.982;2024-02-26T11:01:53;4.35;;;3.75;;
8044;SDS011;4065;48.754;9.982;2024-02-26T11:06:10;4.05;;;3.05;;
8044;SDS011;4065;48.754;9.982;2024-02-26T11:10:27;3.10;;;2.80;;
8044;SDS011;4065;48.754;9.982;2024-02-26T11:14:42;3.63;;;2.75;;
8044;SDS011;4065;48.754;9.982;2024-02-26T11:18:58;3.13;;;2.83;;
8044;SDS011;4065;48.754;9.982;2024-02-26T11:23:16;3.38;;;3.08;;
8044;SDS011;4065;48.754;9.982;2024-02-26T11:27:32;3.00;;;2.78;;
8044;SDS011;4065;48.754;9.982;2024-02-26T11:31:49;3.42;;;3.13;;
8044;SDS011;4065;48.754;9.982;2024-02-26T11:36:07;6.25;;;5.32;;
8044;SDS011;4065;48.754;9.982;2024-02-26T11:40:31;2.92;;;2.72;;
8044;SDS011;4065;48.754;9.982;2024-02-26T11:44:46;4.78;;;2.70;;
8044;SDS011;4065;48.754;9.982;2024-02-26T11:49:31;4.22;;;3.83;;
8044;SDS011;4065;48.754;9.982;2024-02-26T11:54:01;3.38;;;2.90;;
8044;SDS011;4065;48.754;9.982;2024-02-26T11:58:18;5.60;;;4.75;;
8044;SDS011;4065;48.754;9.982;2024-02-26T12:02:39;4.07;;;3.60;;
8044;SDS011;4065;48.754;9.982;2024-02-26T12:06:55;4.93;;;3.00;;
8044;SDS011;4065;48.754;9.982;2024-02-26T12:11:14;6.13;;;5.53;;
8044;SDS011;4065;48.754;9.982;2024-02-26T12:15:35;2.35;;;2.15;;
8044;SDS011;4065;48.754;9.982;2024-02-26T12:20:07;4.72;;;2.70;;
8044;SDS011;4065;48.754;9.982;2024-02-26T12:24:22;2.70;;;2.50;;
8044;SDS011;4065;48.754;9.982;2024-02-26T12:28:37;3.97;;;3.10;;
8044;SDS011;4065;48.754;9.982;2024-02-26T12:32:53;4.43;;;4.13;;
8044;SDS011;4065;48.754;9.982;2024-02-26T12:37:08;3.13;;;2.83;;
8044;SDS011;4065;48.754;9.982;2024-02-26T12:41:24;3.08;;;2.88;;
8044;SDS011;4065;48.754;9.982;2024-02-26T12:45:39;3.17;;;2.70;;
8044;SDS011;4065;48.754;9.982;2024-02-26T12:49:55;3.13;;;2.90;;
8044;SDS011;4065;48.754;9.982;2024-02-26T12:54:08;3.65;;;2.80;;
8044;SDS011;4065;48.754;9.982;2024-02-26T12:58:24;3.35;;;3.00;;
8044;SDS011;4065;48.754;9.982;2024-02-26T13:02:38;3.30;;;3.00;;
8044;SDS011;4065;48.754;9.982;2024-02-26T13:06:54;3.72;;;2.95;;
8044;SDS011;4065;48.754;9.982;2024-02-26T13:10:38;6.00;;;4.30;;
8044;SDS011;4065;48.754;9.982;2024-02-26T13:14:58;3.75;;;3.03;;
8044;SDS011;4065;48.754;9.982;2024-02-26T13:18:53;3.22;;;2.95;;
8044;SDS011;4065;48.754;9.982;2024-02-26T13:22:32;3.55;;;2.90;;
8044;SDS011;4065;48.754;9.982;2024-02-26T13:25:56;9.68;;;4.13;;
8044;SDS011;4065;48.754;9.982;2024-02-26T13:29:18;3.90;;;3.50;;
8044;SDS011;4065;48.754;9.982;2024-02-26T13:32:40;7.80;;;3.58;;
8044;SDS011;4065;48.754;9.982;2024-02-26T13:36:04;4.10;;;3.67;;
8044;SDS011;4065;48.754;9.982;2024-02-26T13:39:27;4.70;;;3.30;;
8044;SDS011;4065;48.754;9.982;2024-02-26T13:42:50;4.25;;;3.85;;
8044;SDS011;4065;48.754;9.982;2024-02-26T13:46:13;5.22;;;3.85;;
8044;SDS011;4065;48.754;9.982;2024-02-26T13:49:35;5.70;;;4.90;;
8044;SDS011;4065;48.754;9.982;2024-02-26T13:52:58;11.35;;;5.57;;
8044;SDS011;4065;48.754;9.982;2024-02-26T13:56:22;5.72;;;4.90;;
8044;SDS011;4065;48.754;9.982;2024-02-26T13:59:44;5.22;;;4.72;;
8044;SDS011;4065;48.754;9.982;2024-02-26T14:03:08;5.28;;;4.70;;
8044;SDS011;4065;48.754;9.982;2024-02-26T14:06:30;6.03;;;4.80;;
8044;SDS011;4065;48.754;9.982;2024-02-26T14:09:52;6.65;;;5.82;;
8044;SDS011;4065;48.754;9.982;2024-02-26T14:13:16;5.90;;;4.60;;
8044;SDS011;4065;48.754;9.982;2024-02-26T14:16:38;5.60;;;5.10;;
8044;SDS011;4065;48.754;9.982;2024-02-26T14:20:00;4.47;;;4.07;;
8044;SDS011;4065;48.754;9.982;2024-02-26T14:23:22;9.35;;;6.68;;
8044;SDS011;4065;48.754;9.982;2024-02-26T14:26:44;8.32;;;5.07;;
8044;SDS011;4065;48.754;9.982;2024-02-26T14:30:08;7.05;;;4.50;;
8044;SDS011;4065;48.754;9.982;2024-02-26T14:33:31;8.05;;;4.57;;
8044;SDS011;4065;48.754;9.982;2024-02-26T14:36:53;7.13;;;4.93;;
8044;SDS011;4065;48.754;9.982;2024-02-26T14:40:14;6.10;;;4.88;;
8044;SDS011;4065;48.754;9.982;2024-02-26T14:43:37;4.93;;;4.20;;
8044;SDS011;4065;48.754;9.982;2024-02-26T14:47:03;4.68;;;4.20;;
8044;SDS011;4065;48.754;9.982;2024-02-26T14:50:25;4.75;;;4.25;;
8044;SDS011;4065;48.754;9.982;2024-02-26T14:53:47;6.88;;;4.43;;
8044;SDS011;4065;48.754;9.982;2024-02-26T14:57:09;5.07;;;4.40;;
8044;SDS011;4065;48.754;9.982;2024-02-26T15:00:31;4.10;;;3.63;;
8044;SDS011;4065;48.754;9.982;2024-02-26T15:03:55;5.40;;;4.18;;
8044;SDS011;4065;48.754;9.982;2024-02-26T15:07:20;5.30;;;3.95;;
8044;SDS011;4065;48.754;9.982;2024-02-26T15:10:42;5.50;;;4.53;;
8044;SDS011;4065;48.754;9.982;2024-02-26T15:14:08;14.52;;;10.18;;
8044;SDS011;4065;48.754;9.982;2024-02-26T15:17:31;8.95;;;4.15;;
8044;SDS011;4065;48.754;9.982;2024-02-26T15:20:56;7.05;;;4.72;;
8044;SDS011;4065;48.754;9.982;2024-02-26T15:24:18;6.38;;;4.88;;
8044;SDS011;4065;48.754;9.982;2024-02-26T15:27:40;6.75;;;5.25;;
8044;SDS011;4065;48.754;9.982;2024-02-26T15:31:02;8.43;;;4.85;;
8044;SDS011;4065;48.754;9.982;2024-02-26T15:34:25;6.15;;;5.40;;
8044;SDS011;4065;48.754;9.982;2024-02-26T15:37:48;5.22;;;4.50;;
8044;SDS011;4065;48.754;9.982;2024-02-26T15:41:10;5.80;;;4.22;;
8044;SDS011;4065;48.754;9.982;2024-02-26T15:44:33;5.00;;;4.35;;
8044;SDS011;4065;48.754;9.982;2024-02-26T15:47:55;4.95;;;4.10;;
8044;SDS011;4065;48.754;9.982;2024-02-26T15:51:18;5.25;;;4.75;;
8044;SDS011;4065;48.754;9.982;2024-02-26T15:54:43;8.45;;;5.20;;
8044;SDS011;4065;48.754;9.982;2024-02-26T15:58:07;7.07;;;5.30;;
8044;SDS011;4065;48.754;9.982;2024-02-26T16:01:30;6.32;;;5.72;;
8044;SDS011;4065;48.754;9.982;2024-02-26T16:04:52;22.73;;;12.15;;
8044;SDS011;4065;48.754;9.982;2024-02-26T16:08:16;9.65;;;6.35;;
8044;SDS011;4065;48.754;9.982;2024-02-26T16:11:43;5.00;;;4.22;;
8044;SDS011;4065;48.754;9.982;2024-02-26T16:15:05;5.35;;;4.25;;
8044;SDS011;4065;48.754;9.982;2024-02-26T16:18:27;5.45;;;4.90;;
8044;SDS011;4065;48.754;9.982;2024-02-26T16:21:50;7.47;;;5.82;;
8044;SDS011;4065;48.754;9.982;2024-02-26T16:25:11;20.83;;;11.38;;
8044;SDS011;4065;48.754;9.982;2024-02-26T16:28:37;42.60;;;18.75;;
8044;SDS011;4065;48.754;9.982;2024-02-26T16:32:01;27.65;;;13.18;;
8044;SDS011;4065;48.754;9.982;2024-02-26T16:35:23;12.32;;;7.40;;
8044;SDS011;4065;48.754;9.982;2024-02-26T16:38:45;10.00;;;7.13;;
8044;SDS011;4065;48.754;9.982;2024-02-26T16:42:07;6.22;;;5.22;;
8044;SDS011;4065;48.754;9.982;2024-02-26T16:45:31;6.90;;;6.03;;
8044;SDS011;4065;48.754;9.982;2024-02-26T16:48:54;9.98;;;7.55;;
8044;SDS011;4065;48.754;9.982;2024-02-26T16:52:16;9.05;;;6.88;;
8044;SDS011;4065;48.754;9.982;2024-02-26T16:55:38;5.78;;;4.93;;
8044;SDS011;4065;48.754;9.982;2024-02-26T16:59:01;6.05;;;4.32;;
8044;SDS011;4065;48.754;9.982;2024-02-26T17:02:24;5.63;;;4.20;;
8044;SDS011;4065;48.754;9.982;2024-02-26T17:05:46;4.20;;;3.80;;
8044;SDS011;4065;48.754;9.982;2024-02-26T17:09:08;4.90;;;4.20;;
8044;SDS011;4065;48.754;9.982;2024-02-26T17:12:30;4.50;;;4.10;;
8044;SDS011;4065;48.754;9.982;2024-02-26T17:15:52;4.82;;;4.32;;
8044;SDS011;4065;48.754;9.982;2024-02-26T17:19:15;7.15;;;5.50;;
8044;SDS011;4065;48.754;9.982;2024-02-26T17:22:37;6.07;;;5.25;;
8044;SDS011;4065;48.754;9.982;2024-02-26T17:25:59;8.57;;;6.13;;
8044;SDS011;4065;48.754;9.982;2024-02-26T17:29:21;9.25;;;6.30;;
8044;SDS011;4065;48.754;9.982;2024-02-26T17:32:43;7.70;;;5.50;;
8044;SDS011;4065;48.754;9.982;2024-02-26T17:36:07;6.18;;;5.57;;
8044;SDS011;4065;48.754;9.982;2024-02-26T17:39:29;6.38;;;5.65;;
8044;SDS011;4065;48.754;9.982;2024-02-26T17:42:51;7.35;;;5.68;;
8044;SDS011;4065;48.754;9.982;2024-02-26T17:46:13;6.50;;;5.45;;
8044;SDS011;4065;48.754;9.982;2024-02-26T17:49:35;4.88;;;4.40;;
8044;SDS011;4065;48.754;9.982;2024-02-26T17:52:58;5.82;;;4.10;;
8044;SDS011;4065;48.754;9.982;2024-02-26T17:56:20;8.52;;;4.50;;
8044;SDS011;4065;48.754;9.982;2024-02-26T17:59:42;4.90;;;4.40;;
8044;SDS011;4065;48.754;9.982;2024-02-26T18:03:04;5.25;;;4.75;;
8044;SDS011;4065;48.754;9.982;2024-02-26T18:06:26;4.88;;;4.35;;
8044;SDS011;4065;48.754;9.982;2024-02-26T18:09:49;5.13;;;4.50;;
8044;SDS011;4065;48.754;9.982;2024-02-26T18:13:11;4.22;;;3.83;;
8044;SDS011;4065;48.754;9.982;2024-02-26T18:16:33;6.50;;;3.80;;
8044;SDS011;4065;48.754;9.982;2024-02-26T18:19:55;4.47;;;4.07;;
8044;SDS011;4065;48.754;9.982;2024-02-26T18:23:17;5.18;;;4.10;;
8044;SDS011;4065;48.754;9.982;2024-02-26T18:26:42;3.70;;;3.40;;
8044;SDS011;4065;48.754;9.982;2024-02-26T18:30:04;6.53;;;3.75;;
8044;SDS011;4065;48.754;9.982;2024-02-26T18:33:27;8.43;;;5.10;;
8044;SDS011;4065;48.754;9.982;2024-02-26T18:36:49;15.35;;;8.82;;
8044;SDS011;4065;48.754;9.982;2024-02-26T18:40:11;7.57;;;5.13;;
8044;SDS011;4065;48.754;9.982;2024-02-26T18:43:34;12.50;;;8.13;;
8044;SDS011;4065;48.754;9.982;2024-02-26T18:46:58;22.25;;;12.07;;
8044;SDS011;4065;48.754;9.982;2024-02-26T18:50:20;16.27;;;10.38;;
8044;SDS011;4065;48.754;9.982;2024-02-26T18:53:42;30.70;;;25.38;;
8044;SDS011;4065;48.754;9.982;2024-02-26T18:57:04;11.75;;;8.23;;
8044;SDS011;4065;48.754;9.982;2024-02-26T19:00:28;8.60;;;7.30;;
8044;SDS011;4065;48.754;9.982;2024-02-26T19:03:50;13.20;;;8.10;;
8044;SDS011;4065;48.754;9.982;2024-02-26T19:07:12;8.02;;;6.93;;
8044;SDS011;4065;48.754;9.982;2024-02-26T19:10:34;6.75;;;5.82;;
8044;SDS011;4065;48.754;9.982;2024-02-26T19:13:56;6.85;;;5.38;;
8044;SDS011;4065;48.754;9.982;2024-02-26T19:17:20;6.97;;;6.28;;
8044;SDS011;4065;48.754;9.982;2024-02-26T19:20:42;5.72;;;5.20;;
8044;SDS011;4065;48.754;9.982;2024-02-26T19:24:04;6.30;;;5.63;;
8044;SDS011;4065;48.754;9.982;2024-02-26T19:27:26;6.82;;;4.40;;
8044;SDS011;4065;48.754;9.982;2024-02-26T19:30:49;6.93;;;5.13;;
8044;SDS011;4065;48.754;9.982;2024-02-26T19:34:12;5.30;;;4.22;;
8044;SDS011;4065;48.754;9.982;2024-02-26T19:37:34;4.43;;;4.00;;
8044;SDS011;4065;48.754;9.982;2024-02-26T19:40:56;5.13;;;4.03;;
8044;SDS011;4065;48.754;9.982;2024-02-26T19:44:18;4.03;;;3.72;;
8044;SDS011;4065;48.754;9.982;2024-02-26T19:47:40;4.32;;;3.88;;
8044;SDS011;4065;48.754;9.982;2024-02-26T19:51:04;4.57;;;4.18;;
8044;SDS011;4065;48.754;9.982;2024-02-26T19:54:27;5.13;;;4.07;;
8044;SDS011;4065;48.754;9.982;2024-02-26T19:57:49;4.43;;;4.03;;
8044;SDS011;4065;48.754;9.982;2024-02-26T20:01:11;5.70;;;4.25;;
8044;SDS011;4065;48.754;9.982;2024-02-26T20:04:34;4.25;;;3.85;;
8044;SDS011;4065;48.754;9.982;2024-02-26T20:07:58;4.40;;;3.95;;
8044;SDS011;4065;48.754;9.982;2024-02-26T20:11:20;6.20;;;5.00;;
8044;SDS011;4065;48.754;9.982;2024-02-26T20:14:43;9.02;;;6.30;;
8044;SDS011;4065;48.754;9.982;2024-02-26T20:18:05;17.48;;;12.35;;
8044;SDS011;4065;48.754;9.982;2024-02-26T20:21:28;11.52;;;8.60;;
8044;SDS011;4065;48.754;9.982;2024-02-26T20:24:51;7.82;;;6.47;;
8044;SDS011;4065;48.754;9.982;2024-02-26T20:28:14;13.25;;;9.88;;
8044;SDS011;4065;48.754;9.982;2024-02-26T20:31:37;13.18;;;9.10;;
8044;SDS011;4065;48.754;9.982;2024-02-26T20:34:59;9.55;;;7.13;;
8044;SDS011;4065;48.754;9.982;2024-02-26T20:38:21;10.48;;;7.70;;
8044;SDS011;4065;48.754;9.982;2024-02-26T20:41:45;9.02;;;7.80;;
8044;SDS011;4065;48.754;9.982;2024-02-26T20:45:07;12.85;;;8.90;;
8044;SDS011;4065;48.754;9.982;2024-02-26T20:48:30;10.88;;;8.07;;
8044;SDS011;4065;48.754;9.982;2024-02-26T20:51:55;7.18;;;6.47;;
8044;SDS011;4065;48.754;9.982;2024-02-26T20:55:17;9.43;;;6.75;;
8044;SDS011;4065;48.754;9.982;2024-02-26T20:58:42;7.78;;;5.70;;
8044;SDS011;4065;48.754;9.982;2024-02-26T21:02:06;8.40;;;4.78;;
8044;SDS011;4065;48.754;9.982;2024-02-26T21:05:29;14.85;;;8.85;;
8044;SDS011;4065;48.754;9.982;2024-02-26T21:08:51;4.40;;;4.00;;
8044;SDS011;4065;48.754;9.982;2024-02-26T21:12:15;5.47;;;3.42;;
8044;SDS011;4065;48.754;9.982;2024-02-26T21:15:39;4.80;;;3.75;;
8044;SDS011;4065;48.754;9.982;2024-02-26T21:19:01;4.38;;;3.97;;
8044;SDS011;4065;48.754;9.982;2024-02-26T21:22:26;5.07;;;4.15;;
8044;SDS011;4065;48.754;9.982;2024-02-26T21:25:48;6.47;;;4.40;;
8044;SDS011;4065;48.754;9.982;2024-02-26T21:29:10;7.78;;;4.35;;
8044;SDS011;4065;48.754;9.982;2024-02-26T21:32:34;4.78;;;4.28;;
8044;SDS011;4065;48.754;9.982;2024-02-26T21:35:56;4.40;;;3.80;;
8044;SDS011;4065;48.754;9.982;2024-02-26T21:39:18;7.50;;;4.32;;
8044;SDS011;4065;48.754;9.982;2024-02-26T21:42:40;4.63;;;3.92;;
8044;SDS011;4065;48.754;9.982;2024-02-26T21:46:03;4.38;;;3.85;;
8044;SDS011;4065;48.754;9.982;2024-02-26T21:49:27;4.07;;;3.78;;
8044;SDS011;4065;48.754;9.982;2024-02-26T21:52:48;4.25;;;3.85;;
8044;SDS011;4065;48.754;9.982;2024-02-26T21:56:10;4.75;;;3.97;;
8044;SDS011;4065;48.754;9.982;2024-02-26T21:59:32;4.55;;;4.15;;
8044;SDS011;4065;48.754;9.982;2024-02-26T22:02:54;4.50;;;4.10;;
8044;SDS011;4065;48.754;9.982;2024-02-26T22:06:18;5.65;;;4.95;;
8044;SDS011;4065;48.754;9.982;2024-02-26T22:09:40;6.15;;;5.10;;
8044;SDS011;4065;48.754;9.982;2024-02-26T22:13:03;5.15;;;4.53;;
8044;SDS011;4065;48.754;9.982;2024-02-26T22:16:25;6.00;;;4.35;;
8044;SDS011;4065;48.754;9.982;2024-02-26T22:19:47;4.60;;;4.20;;
8044;SDS011;4065;48.754;9.982;2024-02-26T22:23:10;4.55;;;4.15;;
8044;SDS011;4065;48.754;9.982;2024-02-26T22:26:33;4.88;;;3.83;;
8044;SDS011;4065;48.754;9.982;2024-02-26T22:29:55;4.22;;;3.78;;
8044;SDS011;4065;48.754;9.982;2024-02-26T22:33:17;5.00;;;4.55;;
8044;SDS011;4065;48.754;9.982;2024-02-26T22:36:39;5.93;;;4.93;;
8044;SDS011;4065;48.754;9.982;2024-02-26T22:40:02;5.70;;;4.88;;
8044;SDS011;4065;48.754;9.982;2024-02-26T22:43:25;5.40;;;4.90;;
8044;SDS011;4065;48.754;9.982;2024-02-26T22:46:47;6.22;;;5.18;;
8044;SDS011;4065;48.754;9.982;2024-02-26T22:50:09;5.32;;;4.50;;
8044;SDS011;4065;48.754;9.982;2024-02-26T22:53:32;5.75;;;4.78;;
8044;SDS011;4065;48.754;9.982;2024-02-26T22:56:55;6.65;;;4.88;;
8044;SDS011;4065;48.754;9.982;2024-02-26T23:00:17;5.53;;;4.97;;
8044;SDS011;4065;48.754;9.982;2024-02-26T23:03:47;5.65;;;4.80;;
8044;SDS011;4065;48.754;9.982;2024-02-26T23:07:09;6.00;;;5.28;;
8044;SDS011;4065;48.754;9.982;2024-02-26T23:10:31;5.00;;;4.50;;
8044;SDS011;4065;48.754;9.982;2024-02-26T23:13:55;5.65;;;4.60;;
8044;SDS011;4065;48.754;9.982;2024-02-26T23:17:16;6.97;;;4.57;;
8044;SDS011;4065;48.754;9.982;2024-02-26T23:20:39;4.38;;;4.00;;
8044;SDS011;4065;48.754;9.982;2024-02-26T23:24:00;4.65;;;4.20;;